Main page
METAR-TAF:

METAR-TAF

Airports :

Vientiane, Laos

Wattay International Airport

latitude: 17-57N, longitude: 102-34E, elevation: 171 m

Current weather observation

The report was made 44 minutes ago, at 03:00 UTC
Wind 2 kt from the South/Southeast
Temperature 32°C
Humidity 75%
Pressure 1010 hPa
Visibility: 8000 m
Broken clouds at a height of 1600 ft
Scattered clouds at a height of 20000 ft

METAR: VLVT 200300Z 16002KT 8000 BKN016 SCT200 32/27 Q1010 NOSIG

Time: 10:44 (03:44 UTC)

Forecast

The report was made 4 hours and 44 minutes ago, at 23:00 UTC
Forecast valid from 20 at 00 UTC to 20 at 24 UTC
Wind 4 kt from the North
Visibility 10 km or more
Scattered clouds at a height of 2000 ft
Few clouds at a height of 5000 ft
Few clouds at a height of 20000 ft
Temporary
from 20 at 14 UTC to 20 at 20 UTC
Visibility: 4000 m
Few clouds at a height of 5000 ft
Few clouds at a height of 20000 ft
mist

TAF: VLVT 192300Z 2000/2024 36004KT 9999 SCT020 FEW050 FEW200 TEMPO 2014/2020 4000 BR FEW050 FEW200

Weather observations and forecasts of more than 4000 airports (METAR and TAF reports).

The available stations are represented by yellow and red dots on the map.

Hover mouse over dot to see the name of the station.

Then click to see weather observations and forecasts.

To change the map : click on the green buttons with a black cross to zoom in, on the green button with a dash to zoom out, or on the green arrows for adjacent maps.


METAR-TAF: